N413GT KHEF-KHEF
Flight info
| Callsign | N413GT |
|---|---|
| Flight time | 0h 12m |
| Altitude | 1200 |
| Route | KHEF |
| Aircraft | C404/L-SDFRZ/C |
Departure
| Time | 2026-04-28 22:03 |
|---|---|
| Airport | Manassas Regional Airport/Harry P. Davis Field (KHEF) |
Arrival
| Time | 2026-04-28 22:16 |
|---|---|
| Airport | Manassas Regional Airport/Harry P. Davis Field (KHEF) |
| Time | Latitude | Longitude | Altitude | Speed | Heading |
|---|---|---|---|---|---|
| 2026-04-28 21:13 | 38.72498 | -77.51328 | 189 ft | 0 kts | 177° |
| 2026-04-28 21:58 | 38.72482 | -77.51342 | 189 ft | 0 kts | 260° |
| 2026-04-28 21:58 | 38.72483 | -77.51356 | 199 ft | 5 kts | 288° |
| 2026-04-28 21:59 | 38.72505 | -77.51414 | 189 ft | 6 kts | 310° |
| 2026-04-28 21:59 | 38.72557 | -77.51461 | 189 ft | 11 kts | 333° |
| 2026-04-28 21:59 | 38.72620 | -77.51502 | 196 ft | 10 kts | 332° |
| 2026-04-28 22:00 | 38.72613 | -77.51604 | 200 ft | 7 kts | 317° |
| 2026-04-28 22:00 | 38.72678 | -77.51649 | 194 ft | 14 kts | 328° |
| 2026-04-28 22:00 | 38.72766 | -77.51712 | 198 ft | 12 kts | 326° |
| 2026-04-28 22:00 | 38.72811 | -77.51772 | 199 ft | 9 kts | 249° |
| 2026-04-28 22:01 | 38.72804 | -77.51790 | 195 ft | 0 kts | 240° |
| 2026-04-28 22:02 | 38.72804 | -77.51791 | 195 ft | 0 kts | 240° |
| 2026-04-28 22:02 | 38.72776 | -77.51850 | 199 ft | 9 kts | 235° |
| 2026-04-28 22:02 | 38.72729 | -77.51846 | 196 ft | 2 kts | 148° |
| 2026-04-28 22:02 | 38.72556 | -77.51723 | 199 ft | 63 kts | 151° |
| 2026-04-28 22:03 | 38.72016 | -77.51337 | 250 ft | 107 kts | 153° |
| 2026-04-28 22:03 | 38.71323 | -77.50858 | 526 ft | 124 kts | 155° |
| 2026-04-28 22:03 | 38.70473 | -77.50299 | 804 ft | 148 kts | 155° |
| 2026-04-28 22:03 | 38.69530 | -77.49671 | 1162 ft | 161 kts | 155° |
| 2026-04-28 22:04 | 38.68498 | -77.49020 | 1404 ft | 167 kts | 156° |
| 2026-04-28 22:04 | 38.67518 | -77.48248 | 1629 ft | 164 kts | 152° |
| 2026-04-28 22:04 | 38.66698 | -77.47262 | 1724 ft | 175 kts | 120° |
| 2026-04-28 22:04 | 38.66438 | -77.45679 | 1557 ft | 181 kts | 94° |
| 2026-04-28 22:05 | 38.66736 | -77.44249 | 1695 ft | 175 kts | 37° |
| 2026-04-28 22:05 | 38.67928 | -77.44164 | 1347 ft | 188 kts | 329° |
| 2026-04-28 22:05 | 38.68942 | -77.45094 | 1424 ft | 175 kts | 315° |
| 2026-04-28 22:05 | 38.69847 | -77.46116 | 1351 ft | 175 kts | 316° |
| 2026-04-28 22:06 | 38.70760 | -77.47133 | 1143 ft | 178 kts | 314° |
| 2026-04-28 22:06 | 38.71647 | -77.48182 | 1157 ft | 172 kts | 318° |
| 2026-04-28 22:06 | 38.72575 | -77.49105 | 1265 ft | 166 kts | 323° |
| 2026-04-28 22:06 | 38.73556 | -77.49915 | 1306 ft | 166 kts | 326° |
| 2026-04-28 22:07 | 38.74543 | -77.50663 | 1442 ft | 165 kts | 328° |
| 2026-04-28 22:07 | 38.75568 | -77.51381 | 1450 ft | 168 kts | 330° |
| 2026-04-28 22:07 | 38.76520 | -77.52156 | 1646 ft | 153 kts | 293° |
| 2026-04-28 22:07 | 38.76610 | -77.53454 | 1390 ft | 158 kts | 239° |
| 2026-04-28 22:08 | 38.75882 | -77.54067 | 1515 ft | 130 kts | 167° |
| 2026-04-28 22:08 | 38.74975 | -77.53482 | 949 ft | 149 kts | 145° |
| 2026-04-28 22:08 | 38.74228 | -77.52914 | 722 ft | 103 kts | 154° |
| 2026-04-28 22:08 | 38.73649 | -77.52499 | 484 ft | 89 kts | 153° |
| 2026-04-28 22:09 | 38.73126 | -77.52124 | 312 ft | 83 kts | 151° |
| 2026-04-28 22:09 | 38.72647 | -77.51774 | 210 ft | 76 kts | 157° |
| 2026-04-28 22:09 | 38.72213 | -77.51481 | 188 ft | 71 kts | 158° |
| 2026-04-28 22:09 | 38.71707 | -77.51092 | 263 ft | 102 kts | 150° |
| 2026-04-28 22:10 | 38.71012 | -77.50572 | 564 ft | 128 kts | 156° |
| 2026-04-28 22:10 | 38.70155 | -77.50040 | 936 ft | 146 kts | 157° |
| 2026-04-28 22:10 | 38.69185 | -77.49474 | 1221 ft | 162 kts | 159° |
| 2026-04-28 22:10 | 38.68255 | -77.48772 | 1671 ft | 147 kts | 134° |
| 2026-04-28 22:11 | 38.67782 | -77.47542 | 1618 ft | 166 kts | 95° |
| 2026-04-28 22:11 | 38.68265 | -77.46328 | 1817 ft | 167 kts | 22° |
| 2026-04-28 22:11 | 38.69432 | -77.46553 | 1507 ft | 183 kts | 316° |
| 2026-04-28 22:11 | 38.70399 | -77.47636 | 1393 ft | 184 kts | 316° |
| 2026-04-28 22:12 | 38.71414 | -77.48662 | 1312 ft | 184 kts | 321° |
| 2026-04-28 22:12 | 38.72433 | -77.49555 | 1454 ft | 176 kts | 326° |
| 2026-04-28 22:12 | 38.73536 | -77.50321 | 1364 ft | 186 kts | 333° |
| 2026-04-28 22:12 | 38.74707 | -77.50960 | 1557 ft | 179 kts | 336° |
| 2026-04-28 22:13 | 38.75918 | -77.51560 | 1347 ft | 192 kts | 338° |
| 2026-04-28 22:13 | 38.77107 | -77.52298 | 1358 ft | 183 kts | 323° |
| 2026-04-28 22:13 | 38.78113 | -77.53161 | 1674 ft | 173 kts | 323° |
| 2026-04-28 22:13 | 38.79109 | -77.54012 | 1724 ft | 174 kts | 308° |
| 2026-04-28 22:14 | 38.79485 | -77.55247 | 2096 ft | 134 kts | 240° |
| 2026-04-28 22:14 | 38.78697 | -77.55822 | 1646 ft | 158 kts | 169° |
| 2026-04-28 22:14 | 38.77549 | -77.55358 | 1164 ft | 180 kts | 153° |
| 2026-04-28 22:14 | 38.76461 | -77.54555 | 999 ft | 176 kts | 148° |
| 2026-04-28 22:15 | 38.75398 | -77.53796 | 889 ft | 173 kts | 150° |
| 2026-04-28 22:15 | 38.74338 | -77.53026 | 707 ft | 174 kts | 147° |
| 2026-04-28 22:15 | 38.73386 | -77.52313 | 404 ft | 126 kts | 150° |
| 2026-04-28 22:15 | 38.72803 | -77.51899 | 210 ft | 75 kts | 150° |
| 2026-04-28 22:16 | 38.72445 | -77.51650 | 204 ft | 46 kts | 149° |
| 2026-04-28 22:16 | 38.72292 | -77.51531 | 190 ft | 13 kts | 149° |
| 2026-04-28 22:16 | 38.72257 | -77.51465 | 189 ft | 5 kts | 56° |
| 2026-04-28 22:16 | 38.72280 | -77.51452 | 191 ft | 3 kts | 9° |
| 2026-04-28 22:17 | 38.72301 | -77.51449 | 193 ft | 0 kts | 12° |
| 2026-04-28 22:17 | 38.72339 | -77.51439 | 197 ft | 11 kts | 10° |
| 2026-04-28 22:17 | 38.72416 | -77.51423 | 193 ft | 6 kts | 6° |
| 2026-04-28 22:18 | 38.72483 | -77.51416 | 191 ft | 10 kts | 355° |
| 2026-04-28 22:18 | 38.72570 | -77.51435 | 193 ft | 9 kts | 346° |
| 2026-04-28 22:18 | 38.72588 | -77.51449 | 201 ft | 0 kts | 290° |